This is the latest recevied weather packets stored in our database for station/object AE6DC-5. If no packets are shown the sender has not sent any weather packets the latest 10 day(s).
| Time | Temp. | Humidity | Pressure | Rain* | Wind** | Luminosity | Snow |
|---|---|---|---|---|---|---|---|
| 1777283659 | 12.78° C | 78% | 1015.5 hPa | 0 mm | - | 0 W/m² | - |
| 1777280420 | 13.33° C | 78% | 1015.6 hPa | 0 mm | - | 0 W/m² | - |
| 1777276819 | 13.33° C | 76% | 1015.9 hPa | 0 mm | - | 0 W/m² | - |
| 1777275739 | 13.33° C | 77% | 1015.8 hPa | 0 mm | - | 0 W/m² | - |
| 1777274656 | 13.33° C | 76% | 1015.7 hPa | 0 mm | - | 0 W/m² | - |
| 1777274321 | 13.33° C | 76% | 1015.7 hPa | 0 mm | - | 0 W/m² | - |
| 1777271797 | 13.33° C | 76% | 1015.6 hPa | 0 mm | - | 0 W/m² | - |
| 1777263860 | 13.33° C | 79% | 1015.5 hPa | 0 mm | - | 0 W/m² | - |
| 1777263500 | 13.33° C | 79% | 1015.5 hPa | 0 mm | - | 0 W/m² | - |
| 1777262449 | 13.33° C | 78% | 1015.3 hPa | 0 mm | - | 0 W/m² | - |
| 1777262069 | 13.33° C | 78% | 1015.2 hPa | 0 mm | - | 0 W/m² | - |
| 1777261340 | 13.33° C | 78% | 1015.1 hPa | 0 mm | - | 0 W/m² | - |
| 1777260261 | 13.33° C | 77% | 1015.1 hPa | 0 mm | - | 0 W/m² | - |
| 1777259178 | 13.33° C | 76% | 1014.9 hPa | 0 mm | - | 1 W/m² | - |
| 1777258818 | 13.33° C | 75% | 1014.8 hPa | 0 mm | - | 2 W/m² | - |
| 1777251640 | 13.33° C | 74% | 1014.6 hPa | 0 mm | - | 45 W/m² | - |
| 1777251257 | 13.33° C | 74% | 1014.6 hPa | 0 mm | - | 66 W/m² | - |
| 1777250537 | 13.33° C | 75% | 1014.5 hPa | 0 mm | - | 119 W/m² | - |
| 1777248018 | 13.33° C | 73% | 1014 hPa | 0 mm | - | 485 W/m² | - |
| 1777245159 | 13.33° C | 76% | 1014.1 hPa | 0 mm | - | 413 W/m² | - |
| 1777243337 | 13.33° C | 74% | 1013.7 hPa | 0 mm | - | 670 W/m² | - |
| 1777239401 | 13.33° C | 74% | 1014.2 hPa | 0 mm | - | 572 W/m² | - |
| 1777239018 | 13.33° C | 75% | 1013.9 hPa | 0 mm | - | 741 W/m² | - |
| 1777236885 | 13.33° C | 76% | 1013.7 hPa | 0 mm | - | 526 W/m² | - |
| 1777236139 | 12.78° C | 76% | 1014.1 hPa | 0 mm | - | 323 W/m² | - |
* Rain latest hour (hover to see other rain measurements)
** Current wind speed in m/s (hover to see current wind gust speed)